createdAt,value
2017-03-13T00:00:17.814Z,5.82
2017-03-13T00:01:27.046Z,5.82
2017-03-13T00:02:36.737Z,5.83
2017-03-13T00:03:46.135Z,5.83
2017-03-13T00:04:55.635Z,5.89
2017-03-13T00:06:04.884Z,5.86
2017-03-13T00:07:16.136Z,5.81
2017-03-13T00:08:25.853Z,5.74
2017-03-13T00:09:35.468Z,5.72
2017-03-13T00:10:46.644Z,5.78
2017-03-13T00:11:55.654Z,5.75
2017-03-13T00:13:05.700Z,5.72
2017-03-13T00:14:14.758Z,5.67
2017-03-13T00:15:25.177Z,5.74
2017-03-13T00:16:34.190Z,5.76
2017-03-13T00:17:43.549Z,5.74
2017-03-13T00:18:52.797Z,5.68
2017-03-13T00:20:02.238Z,5.74
2017-03-13T00:21:11.257Z,5.71
2017-03-13T00:22:21.351Z,5.71
2017-03-13T00:23:30.478Z,5.64
2017-03-13T00:24:41.786Z,5.63
2017-03-13T00:25:53.952Z,5.6
2017-03-13T00:27:02.955Z,5.64
2017-03-13T00:28:15.161Z,5.58
2017-03-13T00:29:26.977Z,5.67
2017-03-13T00:30:36.302Z,5.48
2017-03-13T00:31:47.961Z,5.56
2017-03-13T00:32:58.166Z,5.56
2017-03-13T00:34:08.200Z,5.45
2017-03-13T00:35:19.941Z,5.46
2017-03-13T00:36:29.275Z,5.49
2017-03-13T00:37:39.794Z,5.49
2017-03-13T00:38:48.779Z,5.56
2017-03-13T00:39:58.487Z,5.4
2017-03-13T00:41:07.646Z,5.48
2017-03-13T00:42:18.203Z,5.46
2017-03-13T00:43:30.625Z,5.35
2017-03-13T00:44:39.631Z,5.33
2017-03-13T00:45:51.493Z,5.36
2017-03-13T00:47:03.231Z,5.38
2017-03-13T00:48:12.542Z,5.43
2017-03-13T00:49:22.490Z,5.43
2017-03-13T00:50:31.669Z,5.48
2017-03-13T00:51:40.938Z,5.46
2017-03-13T00:52:49.948Z,5.4
2017-03-13T00:54:01.924Z,5.43
2017-03-13T00:55:14.040Z,5.39
2017-03-13T00:56:23.025Z,5.36
2017-03-13T00:57:32.936Z,5.35
2017-03-13T00:58:42.019Z,5.31
2017-03-13T00:59:54.072Z,5.31
2017-03-13T01:01:06.487Z,5.25
2017-03-13T01:02:15.477Z,5.24
2017-03-13T01:03:26.689Z,5.24
2017-03-13T01:04:36.881Z,5.25
2017-03-13T01:05:46.191Z,5.2
2017-03-13T01:06:58.071Z,5.18
2017-03-13T01:08:07.334Z,5.2
2017-03-13T01:09:19.529Z,5.22
2017-03-13T01:10:31.872Z,5.17
2017-03-13T01:11:41.289Z,5.13
2017-03-13T01:12:51.928Z,5.18
2017-03-13T01:14:02.140Z,5.17
2017-03-13T01:15:11.124Z,5.15
2017-03-13T01:16:21.112Z,5.27
2017-03-13T01:17:30.411Z,5.2
2017-03-13T01:18:41.879Z,5.13
2017-03-13T01:19:51.048Z,5.24
2017-03-13T01:21:01.082Z,5.25
2017-03-13T01:22:10.238Z,5.24
2017-03-13T01:23:21.810Z,5.22
2017-03-13T01:24:32.192Z,5.24
2017-03-13T01:25:41.276Z,5.35
2017-03-13T01:26:51.178Z,5.36
2017-03-13T01:28:00.234Z,5.36
2017-03-13T01:29:11.279Z,5.33
2017-03-13T01:30:20.448Z,5.33
2017-03-13T01:31:32.578Z,5.38
2017-03-13T01:32:45.218Z,5.33
2017-03-13T01:33:54.802Z,5.27
2017-03-13T01:35:06.861Z,5.22
2017-03-13T01:36:18.744Z,5.18
2017-03-13T01:37:27.737Z,5.25
2017-03-13T01:38:38.811Z,5.25
2017-03-13T01:39:48.959Z,5.25
2017-03-13T01:40:58.843Z,5.27
2017-03-13T01:42:10.218Z,5.31
2017-03-13T01:43:19.402Z,5.31
2017-03-13T01:44:30.538Z,5.22
2017-03-13T01:45:39.630Z,5.22
2017-03-13T01:46:50.146Z,5.24
2017-03-13T01:48:02.512Z,5.3
2017-03-13T01:49:11.591Z,5.13
2017-03-13T01:50:23.222Z,5.1
2017-03-13T01:51:35.527Z,5.2
2017-03-13T01:52:44.819Z,5.17
2017-03-13T01:53:54.784Z,5.24
2017-03-13T01:55:03.775Z,5.13
2017-03-13T01:56:14.730Z,5.09
2017-03-13T01:57:25.036Z,5.15
2017-03-13T01:58:35.523Z,5.17
2017-03-13T01:59:45.795Z,5.17
2017-03-13T02:00:55.040Z,5.13
2017-03-13T02:02:05.092Z,5.17
2017-03-13T02:03:14.155Z,5.15
2017-03-13T02:04:26.226Z,5.09
2017-03-13T02:05:38.207Z,5.09
2017-03-13T02:06:47.310Z,5.2
2017-03-13T02:07:58.796Z,5.2
2017-03-13T02:09:08.801Z,5.1
2017-03-13T02:10:18.221Z,5.18
2017-03-13T02:11:29.892Z,5.13
2017-03-13T02:12:38.870Z,5.13
2017-03-13T02:13:50.678Z,5.27
2017-03-13T02:15:00.619Z,5.22
2017-03-13T02:16:10.558Z,5.22
2017-03-13T02:17:21.749Z,5.17
2017-03-13T02:18:30.867Z,5.22
2017-03-13T02:19:42.583Z,5.33
2017-03-13T02:20:53.003Z,5.36
2017-03-13T02:22:02.246Z,5.31
2017-03-13T02:23:12.468Z,5.35
2017-03-13T02:24:21.741Z,5.36
2017-03-13T02:25:30.735Z,5.35
2017-03-13T02:26:39.725Z,5.28
2017-03-13T02:27:49.502Z,5.36
2017-03-13T02:28:58.626Z,5.35
2017-03-13T02:30:08.125Z,5.38
2017-03-13T02:31:17.296Z,5.39
2017-03-13T02:32:26.811Z,5.43
2017-03-13T02:33:36.272Z,5.42
2017-03-13T02:34:46.981Z,5.36
2017-03-13T02:35:55.957Z,5.4
2017-03-13T02:37:06.487Z,5.33
2017-03-13T02:38:15.484Z,5.35
2017-03-13T02:39:25.213Z,5.27
2017-03-13T02:40:34.207Z,5.33
2017-03-13T02:41:43.381Z,5.38
2017-03-13T02:42:52.700Z,5.46
2017-03-13T02:44:02.208Z,5.39
2017-03-13T02:45:11.495Z,5.46
2017-03-13T02:46:21.242Z,5.48
2017-03-13T02:47:30.391Z,5.49
2017-03-13T02:48:40.969Z,5.43
2017-03-13T02:49:49.963Z,5.56
2017-03-13T02:51:00.685Z,5.54
2017-03-13T02:52:10.569Z,5.48
2017-03-13T02:53:19.566Z,5.48
2017-03-13T02:54:29.473Z,5.46
2017-03-13T02:55:38.546Z,5.39
2017-03-13T02:56:49.342Z,5.42
2017-03-13T02:57:58.354Z,5.46
2017-03-13T02:59:07.607Z,5.42
2017-03-13T03:00:16.613Z,5.42
2017-03-13T03:01:26.507Z,5.45
2017-03-13T03:02:35.750Z,5.45
2017-03-13T03:03:45.463Z,5.4
2017-03-13T03:04:54.483Z,5.4
2017-03-13T03:06:03.853Z,5.4
2017-03-13T03:07:12.929Z,5.35
2017-03-13T03:08:22.751Z,5.31
2017-03-13T03:09:31.742Z,5.35
2017-03-13T03:10:41.857Z,5.33
2017-03-13T03:11:51.023Z,5.28
2017-03-13T03:13:00.829Z,5.24
2017-03-13T03:14:10.485Z,5.22
2017-03-13T03:15:21.092Z,5.18
2017-03-13T03:16:30.084Z,5.2
2017-03-13T03:17:40.034Z,5.22
2017-03-13T03:18:49.749Z,5.2
2017-03-13T03:20:00.014Z,5.27
2017-03-13T03:21:09.504Z,5.24
2017-03-13T03:22:18.665Z,5.28
2017-03-13T03:23:27.889Z,5.24
2017-03-13T03:24:37.120Z,5.17
2017-03-13T03:25:48.643Z,5.13
2017-03-13T03:26:57.724Z,5.1
2017-03-13T03:28:09.406Z,5.07
2017-03-13T03:29:19.111Z,5.06
2017-03-13T03:30:29.083Z,5.09
2017-03-13T03:31:41.058Z,5.07
2017-03-13T03:32:50.148Z,5.1
2017-03-13T03:33:59.740Z,5.06
2017-03-13T03:35:08.805Z,5.1
2017-03-13T03:36:19.926Z,5.06
2017-03-13T03:37:30.114Z,5.15
2017-03-13T03:38:39.271Z,5.07
2017-03-13T03:39:49.515Z,5.12
2017-03-13T03:40:58.519Z,5.06
2017-03-13T03:42:08.346Z,5.15
2017-03-13T03:43:17.738Z,5.03
2017-03-13T03:44:28.258Z,5.12
2017-03-13T03:45:37.430Z,4.99
2017-03-13T03:46:49.247Z,5.09
2017-03-13T03:47:59.399Z,5.03
2017-03-13T03:49:08.746Z,5.02
2017-03-13T03:50:18.852Z,4.99
2017-03-13T03:51:28.007Z,5.04
2017-03-13T03:52:37.579Z,5.02
2017-03-13T03:53:46.648Z,5.03
2017-03-13T03:54:57.781Z,4.91
2017-03-13T03:56:06.791Z,4.91
2017-03-13T03:57:17.097Z,5
2017-03-13T03:58:26.176Z,4.86
2017-03-13T03:59:35.764Z,4.97
2017-03-13T04:00:45.115Z,4.89
2017-03-13T04:01:58.054Z,4.89
2017-03-13T04:03:09.255Z,5.02
2017-03-13T04:04:18.261Z,5
2017-03-13T04:05:29.967Z,4.94
2017-03-13T04:06:42.851Z,4.94
2017-03-13T04:07:51.922Z,4.89
2017-03-13T04:09:02.889Z,5
2017-03-13T04:10:13.353Z,4.96
2017-03-13T04:11:22.640Z,4.85
2017-03-13T04:12:34.634Z,4.89
2017-03-13T04:13:43.740Z,4.99
2017-03-13T04:14:53.302Z,4.94
2017-03-13T04:16:02.314Z,4.97
2017-03-13T04:17:13.973Z,4.94
2017-03-13T04:18:26.641Z,4.92
2017-03-13T04:19:35.644Z,4.94
2017-03-13T04:20:47.439Z,4.92
2017-03-13T04:21:59.976Z,4.91
2017-03-13T04:23:08.973Z,4.96
2017-03-13T04:24:20.830Z,4.86
2017-03-13T04:25:32.927Z,4.91
2017-03-13T04:26:42.012Z,4.92
2017-03-13T04:27:53.813Z,4.85
2017-03-13T04:29:05.905Z,4.89
2017-03-13T04:30:15.281Z,4.91
2017-03-13T04:31:27.246Z,4.89
2017-03-13T04:32:39.517Z,4.92
2017-03-13T04:33:48.607Z,4.89
2017-03-13T04:34:58.666Z,4.91
2017-03-13T04:36:08.470Z,4.92
2017-03-13T04:37:17.541Z,4.99
2017-03-13T04:38:27.159Z,4.96
2017-03-13T04:39:36.153Z,4.89
2017-03-13T04:40:45.163Z,4.89
2017-03-13T04:41:54.410Z,4.86
2017-03-13T04:43:03.481Z,4.97
2017-03-13T04:44:12.494Z,4.99
2017-03-13T04:45:21.681Z,4.96
2017-03-13T04:46:30.693Z,4.96
2017-03-13T04:47:39.990Z,4.86
2017-03-13T04:48:48.976Z,4.99
2017-03-13T04:49:58.133Z,4.97
2017-03-13T04:51:07.304Z,4.94
2017-03-13T04:52:16.312Z,4.85
2017-03-13T04:53:25.544Z,4.89
2017-03-13T04:54:34.531Z,4.89
2017-03-13T04:55:43.538Z,4.88
2017-03-13T04:56:52.611Z,4.99
2017-03-13T04:58:01.770Z,4.92
2017-03-13T04:59:11.028Z,4.89
2017-03-13T05:00:20.192Z,4.91
2017-03-13T05:01:29.295Z,4.94
2017-03-13T05:02:38.373Z,4.94
2017-03-13T05:03:48.215Z,4.92
2017-03-13T05:04:58.052Z,5.02
2017-03-13T05:06:07.138Z,4.85
2017-03-13T05:07:16.325Z,4.92
2017-03-13T05:08:25.432Z,4.86
2017-03-13T05:09:34.443Z,4.86
2017-03-13T05:10:43.684Z,4.77
2017-03-13T05:11:52.762Z,4.77
2017-03-13T05:13:01.777Z,4.8
2017-03-13T05:14:10.784Z,4.84
2017-03-13T05:15:19.865Z,4.8
2017-03-13T05:16:29.276Z,4.75
2017-03-13T05:17:38.382Z,4.73
2017-03-13T05:18:47.364Z,4.69
2017-03-13T05:19:56.445Z,4.69
2017-03-13T05:21:05.554Z,4.67
2017-03-13T05:22:14.869Z,4.66
2017-03-13T05:23:23.866Z,4.66
2017-03-13T05:24:33.473Z,4.67
2017-03-13T05:25:42.466Z,4.62
2017-03-13T05:26:51.472Z,4.63
2017-03-13T05:28:00.743Z,4.52
2017-03-13T05:29:09.754Z,4.55
2017-03-13T05:30:18.735Z,4.55
2017-03-13T05:31:27.751Z,4.58
2017-03-13T05:32:36.827Z,4.58
2017-03-13T05:33:45.954Z,4.52
2017-03-13T05:34:54.953Z,4.51
2017-03-13T05:36:04.039Z,4.6
2017-03-13T05:37:13.209Z,4.59
2017-03-13T05:38:22.506Z,4.58
2017-03-13T05:39:31.527Z,4.47
2017-03-13T05:40:40.637Z,4.58
2017-03-13T05:41:49.746Z,4.54
2017-03-13T05:42:58.751Z,4.59
2017-03-13T05:44:08.036Z,4.6
2017-03-13T05:45:17.022Z,4.54
2017-03-13T05:46:26.029Z,4.59
2017-03-13T05:47:35.014Z,4.62
2017-03-13T05:48:43.997Z,4.58
2017-03-13T05:49:53.341Z,4.54
2017-03-13T05:51:02.434Z,4.58
2017-03-13T05:52:11.503Z,4.66
2017-03-13T05:53:20.520Z,4.66
2017-03-13T05:54:29.509Z,4.65
2017-03-13T05:55:38.770Z,4.75
2017-03-13T05:56:47.857Z,4.67
2017-03-13T05:57:57.019Z,4.75
2017-03-13T05:59:06.046Z,4.69
2017-03-13T06:00:15.161Z,4.72
2017-03-13T06:01:24.496Z,4.72
2017-03-13T06:02:33.490Z,4.8
2017-03-13T06:03:42.564Z,4.67
2017-03-13T06:04:51.547Z,4.75
2017-03-13T06:06:00.635Z,4.58
2017-03-13T06:07:10.438Z,4.7
2017-03-13T06:08:19.456Z,4.77
2017-03-13T06:09:28.429Z,4.84
2017-03-13T06:10:37.404Z,4.85
2017-03-13T06:11:46.394Z,4.88
2017-03-13T06:12:55.692Z,4.89
2017-03-13T06:14:04.768Z,4.89
2017-03-13T06:15:13.861Z,4.86
2017-03-13T06:16:22.857Z,4.94
2017-03-13T06:17:32.021Z,4.85
2017-03-13T06:18:42.419Z,4.84
2017-03-13T06:19:51.413Z,4.82
2017-03-13T06:21:00.599Z,4.82
2017-03-13T06:22:09.777Z,4.86
2017-03-13T06:23:18.862Z,4.96
2017-03-13T06:24:28.209Z,5.03
2017-03-13T06:25:37.271Z,4.97
2017-03-13T06:26:46.266Z,4.97
2017-03-13T06:27:55.281Z,5.06
2017-03-13T06:29:04.274Z,5.03
2017-03-13T06:30:13.532Z,5.03
2017-03-13T06:31:22.526Z,5.09
2017-03-13T06:32:31.561Z,5.13
2017-03-13T06:33:41.046Z,5.09
2017-03-13T06:34:50.071Z,5.22
2017-03-13T06:35:59.317Z,5.22
2017-03-13T06:37:08.317Z,5.25
2017-03-13T06:38:17.316Z,5.3
2017-03-13T06:39:26.403Z,5.33
2017-03-13T06:40:35.386Z,5.39
2017-03-13T06:41:44.729Z,5.38
2017-03-13T06:42:53.731Z,5.4
2017-03-13T06:44:03.172Z,5.4
2017-03-13T06:45:20.043Z,5.43
2017-03-13T06:46:43.922Z,5.53
2017-03-13T06:47:54.165Z,5.54
2017-03-13T06:49:03.259Z,5.48
2017-03-13T06:50:12.568Z,5.58
2017-03-13T06:51:21.813Z,5.56
2017-03-13T06:52:31.247Z,5.53
2017-03-13T06:53:40.505Z,5.56
2017-03-13T06:54:49.702Z,5.58
2017-03-13T06:55:58.802Z,5.6
2017-03-13T06:57:08.016Z,5.54
2017-03-13T06:58:17.404Z,5.56
2017-03-13T06:59:26.546Z,5.54
2017-03-13T07:00:35.785Z,5.57
2017-03-13T07:01:44.768Z,5.58
2017-03-13T07:02:53.767Z,5.57
2017-03-13T07:04:03.038Z,5.63
2017-03-13T07:05:12.978Z,5.72
2017-03-13T07:06:21.986Z,5.63
2017-03-13T07:07:31.086Z,5.71
2017-03-13T07:08:40.152Z,5.68
2017-03-13T07:09:49.584Z,5.71
2017-03-13T07:10:58.641Z,5.68
2017-03-13T07:12:08.267Z,5.67
2017-03-13T07:13:17.358Z,5.65
2017-03-13T07:14:26.446Z,5.67
2017-03-13T07:15:35.703Z,5.71
2017-03-13T07:16:44.833Z,5.71
2017-03-13T07:17:53.896Z,5.71
2017-03-13T07:19:02.982Z,5.71
2017-03-13T07:20:12.041Z,5.75
2017-03-13T07:21:21.460Z,5.79
2017-03-13T07:22:30.470Z,5.81
2017-03-13T07:23:39.448Z,5.78
2017-03-13T07:24:48.543Z,5.93
2017-03-13T07:25:57.792Z,5.93
2017-03-13T07:27:07.225Z,5.97
2017-03-13T07:28:16.483Z,6.03
2017-03-13T07:29:25.562Z,6.03
2017-03-13T07:30:34.608Z,6.03
2017-03-13T07:31:43.614Z,6.14
2017-03-13T07:32:53.013Z,6.15
2017-03-13T07:34:02.102Z,6.19
2017-03-13T07:35:11.200Z,6.19
2017-03-13T07:36:20.194Z,6.25
2017-03-13T07:37:29.395Z,6.27
2017-03-13T07:38:38.676Z,6.36
2017-03-13T07:39:48.588Z,6.3
2017-03-13T07:40:57.924Z,6.38
2017-03-13T07:42:07.612Z,6.43
2017-03-13T07:43:16.779Z,6.44
2017-03-13T07:44:26.329Z,6.55
2017-03-13T07:45:35.351Z,6.55
2017-03-13T07:46:44.527Z,6.73
2017-03-13T07:47:53.518Z,6.74
2017-03-13T07:49:02.830Z,6.81
2017-03-13T07:50:12.265Z,6.85
2017-03-13T07:51:21.335Z,6.91
2017-03-13T07:52:30.775Z,6.98
2017-03-13T07:53:39.856Z,7.1
2017-03-13T07:54:49.233Z,7.17
2017-03-13T07:55:58.679Z,7.31
2017-03-13T07:57:07.948Z,7.23
2017-03-13T07:58:17.341Z,7.23
2017-03-13T07:59:26.335Z,7.24
2017-03-13T08:00:35.656Z,7.3
2017-03-13T08:01:44.977Z,7.25
2017-03-13T08:02:53.966Z,7.37
2017-03-13T08:04:02.948Z,7.31
2017-03-13T08:05:11.936Z,7.35
2017-03-13T08:06:21.004Z,7.32
2017-03-13T08:07:30.442Z,7.46
2017-03-13T08:08:39.679Z,7.48
2017-03-13T08:09:48.972Z,7.46
2017-03-13T08:10:58.185Z,7.5
2017-03-13T08:12:07.190Z,7.52
2017-03-13T08:13:16.501Z,7.58
2017-03-13T08:14:25.486Z,7.57
2017-03-13T08:15:34.694Z,7.55
2017-03-13T08:16:43.686Z,7.55
2017-03-13T08:17:52.690Z,7.67
2017-03-13T08:19:02.103Z,7.69
2017-03-13T08:20:11.108Z,7.71
2017-03-13T08:21:20.101Z,7.72
2017-03-13T08:22:29.097Z,7.72
2017-03-13T08:23:38.280Z,7.69
2017-03-13T08:24:47.517Z,7.71
2017-03-13T08:25:56.527Z,7.86
2017-03-13T08:27:05.537Z,7.86
2017-03-13T08:28:14.714Z,7.97
2017-03-13T08:29:23.791Z,7.93
2017-03-13T08:30:33.043Z,7.95
2017-03-13T08:31:42.047Z,7.93
2017-03-13T08:32:51.048Z,7.93
2017-03-13T08:34:00.129Z,8.04
2017-03-13T08:35:09.245Z,8.07
2017-03-13T08:36:18.530Z,8.05
2017-03-13T08:37:27.517Z,8.07
2017-03-13T08:38:36.614Z,8.1
2017-03-13T08:39:45.711Z,8.05
2017-03-13T08:40:54.694Z,8.1
2017-03-13T08:42:04.105Z,8.07
2017-03-13T08:43:13.180Z,7.98
2017-03-13T08:44:22.182Z,8.08
2017-03-13T08:45:31.606Z,7.97
2017-03-13T08:46:40.606Z,8.05
2017-03-13T08:47:49.904Z,8.05
2017-03-13T08:48:58.915Z,8.04
2017-03-13T08:50:08.347Z,7.97
2017-03-13T08:51:17.430Z,8.08
2017-03-13T08:52:26.516Z,8
2017-03-13T08:53:35.894Z,8.02
2017-03-13T08:54:45.374Z,8.05
2017-03-13T08:55:54.454Z,8.04
2017-03-13T08:57:03.453Z,7.93
2017-03-13T08:58:12.442Z,7.95
2017-03-13T08:59:21.750Z,7.9
2017-03-13T09:00:30.749Z,7.95
2017-03-13T09:01:39.758Z,7.93
2017-03-13T09:02:48.853Z,7.98
2017-03-13T09:03:57.845Z,7.98
2017-03-13T09:05:07.133Z,7.95
2017-03-13T09:06:16.155Z,7.98
2017-03-13T09:07:25.166Z,7.9
2017-03-13T09:08:34.254Z,8.02
2017-03-13T09:09:43.281Z,8.02
2017-03-13T09:10:52.534Z,8.08
2017-03-13T09:12:01.531Z,8.16
2017-03-13T09:13:10.531Z,8.26
2017-03-13T09:14:19.605Z,8.38
2017-03-13T09:15:28.701Z,8.45
2017-03-13T09:16:38.007Z,8.5
2017-03-13T09:17:47.001Z,8.61
2017-03-13T09:18:56.023Z,8.7
2017-03-13T09:20:05.030Z,8.76
2017-03-13T09:21:14.220Z,8.86
2017-03-13T09:22:23.457Z,8.77
2017-03-13T09:23:32.458Z,8.83
2017-03-13T09:24:41.443Z,8.92
2017-03-13T09:25:50.430Z,9.01
2017-03-13T09:26:59.448Z,9.04
2017-03-13T09:28:08.830Z,9.01
2017-03-13T09:29:17.815Z,8.99
2017-03-13T09:30:26.916Z,8.89
2017-03-13T09:31:35.914Z,8.96
2017-03-13T09:32:44.916Z,8.92
2017-03-13T09:33:54.223Z,8.99
2017-03-13T09:35:03.242Z,9.08
2017-03-13T09:36:12.432Z,9.05
2017-03-13T09:37:21.420Z,9.11
2017-03-13T09:38:30.835Z,9.13
2017-03-13T09:39:40.323Z,9.13
2017-03-13T09:40:49.358Z,9.14
2017-03-13T09:41:58.375Z,9.13
2017-03-13T09:43:07.635Z,9.17
2017-03-13T09:44:16.634Z,9.28
2017-03-13T09:45:25.980Z,9.28
2017-03-13T09:46:35.074Z,9.31
2017-03-13T09:47:44.154Z,9.33
2017-03-13T09:48:53.152Z,9.36
2017-03-13T09:50:02.567Z,9.36
2017-03-13T09:51:12.072Z,9.39
2017-03-13T09:52:21.206Z,9.46
2017-03-13T09:53:30.190Z,9.47
2017-03-13T09:54:39.187Z,9.48
2017-03-13T09:55:48.268Z,9.43
2017-03-13T09:56:57.640Z,9.47
2017-03-13T09:58:06.715Z,9.46
2017-03-13T09:59:15.738Z,9.43
2017-03-13T10:00:24.850Z,9.47
2017-03-13T10:01:34.294Z,9.53
2017-03-13T10:02:43.630Z,9.46
2017-03-13T10:03:52.727Z,9.46
2017-03-13T10:05:01.737Z,9.54
2017-03-13T10:06:10.854Z,9.53
2017-03-13T10:07:19.988Z,9.56
2017-03-13T10:08:29.702Z,9.58
2017-03-13T10:09:38.715Z,9.61
2017-03-13T10:10:47.728Z,9.71
2017-03-13T10:11:56.718Z,9.79
2017-03-13T10:13:05.703Z,9.86
2017-03-13T10:14:15.865Z,9.79
2017-03-13T10:15:24.864Z,9.89
2017-03-13T10:16:33.868Z,9.86
2017-03-13T10:17:43.684Z,9.84
2017-03-13T10:18:52.673Z,9.93
2017-03-13T10:20:02.150Z,9.97
2017-03-13T10:21:11.153Z,10.11
2017-03-13T10:22:20.440Z,10.05
2017-03-13T10:23:29.428Z,10.11
2017-03-13T10:24:38.526Z,10.12
2017-03-13T10:25:47.842Z,10.17
2017-03-13T10:26:56.854Z,10.27
2017-03-13T10:28:05.842Z,10.29
2017-03-13T10:29:14.848Z,10.47
2017-03-13T10:30:24.098Z,10.51
2017-03-13T10:31:33.943Z,10.51
2017-03-13T10:32:42.950Z,10.6
2017-03-13T10:33:51.956Z,10.74
2017-03-13T10:35:01.035Z,10.79
2017-03-13T10:36:10.115Z,10.82
2017-03-13T10:37:19.413Z,10.88
2017-03-13T10:38:28.521Z,10.94
2017-03-13T10:39:37.674Z,10.96
2017-03-13T10:40:46.765Z,11
2017-03-13T10:41:55.942Z,10.99
2017-03-13T10:43:05.385Z,11.07
2017-03-13T10:44:14.397Z,11.09
2017-03-13T10:45:23.706Z,11.09
2017-03-13T10:46:32.718Z,11.06
2017-03-13T10:47:41.821Z,11.06
2017-03-13T10:48:51.122Z,11.19
2017-03-13T10:50:00.135Z,11.19
2017-03-13T10:51:09.222Z,11.24
2017-03-13T10:52:18.234Z,11.28
2017-03-13T10:53:27.321Z,11.36
2017-03-13T10:54:36.687Z,11.46
2017-03-13T10:55:45.785Z,11.49
2017-03-13T10:56:54.872Z,11.6
2017-03-13T10:58:03.886Z,11.55
2017-03-13T10:59:12.879Z,11.57
2017-03-13T11:00:22.309Z,11.7
2017-03-13T11:01:31.718Z,11.65
2017-03-13T11:02:40.737Z,11.62
2017-03-13T11:03:50.016Z,11.67
2017-03-13T11:04:59.027Z,11.62
2017-03-13T11:06:08.331Z,11.7
2017-03-13T11:07:17.321Z,11.65
2017-03-13T11:08:26.308Z,11.67
2017-03-13T11:09:35.320Z,11.69
2017-03-13T11:10:44.439Z,11.72
2017-03-13T11:11:53.854Z,11.64
2017-03-13T11:13:02.857Z,11.73
2017-03-13T11:14:11.874Z,11.65
2017-03-13T11:15:20.875Z,11.69
2017-03-13T11:16:29.985Z,11.67
2017-03-13T11:17:39.289Z,11.69
2017-03-13T11:18:48.293Z,11.61
2017-03-13T11:19:57.501Z,11.67
2017-03-13T11:21:06.513Z,11.72
2017-03-13T11:22:15.503Z,11.65
2017-03-13T11:23:24.820Z,11.7
2017-03-13T11:24:33.902Z,11.61
2017-03-13T11:25:43.028Z,11.73
2017-03-13T11:26:52.034Z,11.69
2017-03-13T11:28:01.054Z,11.7
2017-03-13T11:29:10.366Z,11.72
2017-03-13T11:30:19.453Z,11.73
2017-03-13T11:31:28.442Z,11.78
2017-03-13T11:32:37.532Z,11.72
2017-03-13T11:33:46.542Z,11.7
2017-03-13T11:34:56.332Z,11.69
2017-03-13T11:36:05.404Z,11.55
2017-03-13T11:37:15.218Z,11.57
2017-03-13T11:38:24.210Z,11.58
2017-03-13T11:39:33.222Z,11.51
2017-03-13T11:40:42.463Z,11.61
2017-03-13T11:41:51.483Z,11.52
2017-03-13T11:43:00.488Z,11.62
2017-03-13T11:44:09.507Z,11.55
2017-03-13T11:45:18.503Z,11.69
2017-03-13T11:46:27.879Z,11.85
2017-03-13T11:47:36.991Z,11.82
2017-03-13T11:48:45.998Z,11.85
2017-03-13T11:49:55.034Z,11.94
2017-03-13T11:51:04.040Z,11.91
2017-03-13T11:52:13.344Z,11.99
2017-03-13T11:53:22.346Z,12.05
2017-03-13T11:54:31.327Z,11.91
2017-03-13T11:55:40.739Z,11.91
2017-03-13T11:56:49.749Z,11.85
2017-03-13T11:57:59.103Z,11.88
2017-03-13T11:59:08.120Z,11.83
2017-03-13T12:00:17.623Z,11.83
2017-03-13T12:01:26.724Z,11.9
2017-03-13T12:02:36.306Z,11.91
2017-03-13T12:03:45.625Z,11.99
2017-03-13T12:04:54.614Z,11.99
2017-03-13T12:06:03.603Z,11.91
2017-03-13T12:07:12.615Z,11.94
2017-03-13T12:08:21.629Z,12.02
2017-03-13T12:09:31.352Z,11.96
2017-03-13T12:10:40.353Z,11.98
2017-03-13T12:11:49.473Z,12.1
2017-03-13T12:12:58.567Z,12.13
2017-03-13T12:14:07.971Z,12.07
2017-03-13T12:15:17.364Z,12.19
2017-03-13T12:16:26.540Z,12.12
2017-03-13T12:17:35.627Z,12.14
2017-03-13T12:18:44.721Z,12.14
2017-03-13T12:19:53.733Z,12.09
2017-03-13T12:21:03.022Z,12.07
2017-03-13T12:22:13.882Z,12.07
2017-03-13T12:23:23.330Z,12.02
2017-03-13T12:24:32.333Z,12.14
2017-03-13T12:25:41.325Z,12.1
2017-03-13T12:26:50.577Z,12.13
2017-03-13T12:27:59.668Z,12.1
2017-03-13T12:29:08.683Z,11.99
2017-03-13T12:30:17.687Z,12.1
2017-03-13T12:31:26.732Z,12.19
2017-03-13T12:32:35.983Z,12.13
2017-03-13T12:33:45.086Z,12.13
2017-03-13T12:34:54.176Z,12.19
2017-03-13T12:36:03.376Z,12.1
2017-03-13T12:37:12.393Z,12.12
2017-03-13T12:38:21.644Z,12.02
2017-03-13T12:39:31.157Z,11.99
2017-03-13T12:40:40.343Z,12.1
2017-03-13T12:41:49.346Z,12.13
2017-03-13T12:42:58.335Z,12.24
2017-03-13T12:44:07.651Z,12.16
2017-03-13T12:45:16.661Z,12.31
2017-03-13T12:46:25.677Z,12.21
2017-03-13T12:47:34.860Z,12.32
2017-03-13T12:48:43.978Z,12.24
2017-03-13T12:49:53.251Z,12.2
2017-03-13T12:51:02.247Z,12.23
2017-03-13T12:54:10.011Z,12.28
2017-03-13T12:55:19.925Z,12.27
2017-03-13T12:56:29.010Z,12.31
2017-03-13T12:57:38.117Z,12.28
2017-03-13T12:58:47.296Z,12.31
2017-03-13T12:59:56.297Z,12.41
2017-03-13T13:01:05.531Z,12.37
2017-03-13T13:02:14.521Z,12.49
2017-03-13T13:03:23.765Z,12.5
2017-03-13T13:04:32.905Z,12.59
2017-03-13T13:05:41.967Z,12.57
2017-03-13T13:06:51.186Z,12.62
2017-03-13T13:08:00.238Z,12.67
2017-03-13T13:09:09.285Z,12.74
2017-03-13T13:10:18.327Z,12.78
2017-03-13T13:11:27.293Z,12.85
2017-03-13T13:12:36.514Z,12.85
2017-03-13T13:13:45.562Z,12.86
2017-03-13T13:14:54.612Z,12.86
2017-03-13T13:16:03.571Z,12.97
2017-03-13T13:17:12.622Z,13.01
2017-03-13T13:18:21.890Z,13.04
2017-03-13T13:19:30.857Z,13.04
2017-03-13T13:20:39.821Z,13.05
2017-03-13T13:21:48.785Z,13.14
2017-03-13T13:22:57.747Z,13.12
2017-03-13T13:24:06.985Z,13.15
2017-03-13T13:25:15.947Z,13.23
2017-03-13T13:26:24.999Z,13.25
2017-03-13T13:27:34.077Z,13.22
2017-03-13T13:28:43.043Z,13.25
2017-03-13T13:29:52.255Z,13.26
2017-03-13T13:31:01.221Z,13.44
2017-03-13T13:32:10.223Z,13.28
2017-03-13T13:33:19.189Z,13.41
2017-03-13T13:34:28.663Z,13.32
2017-03-13T13:35:38.010Z,13.29
2017-03-13T13:36:46.977Z,13.38
2017-03-13T13:37:55.945Z,13.36
2017-03-13T13:39:04.910Z,13.33
2017-03-13T13:40:13.872Z,13.32
2017-03-13T13:41:23.328Z,13.32
2017-03-13T13:42:32.392Z,13.32
2017-03-13T13:43:41.758Z,13.41
2017-03-13T13:44:50.724Z,13.41
2017-03-13T13:45:59.687Z,13.42
2017-03-13T13:47:08.901Z,13.42
2017-03-13T13:48:17.882Z,13.54
2017-03-13T13:49:26.859Z,13.49
2017-03-13T13:50:35.825Z,13.45
2017-03-13T13:51:44.876Z,13.48
2017-03-13T13:52:54.316Z,13.42
2017-03-13T13:54:03.284Z,13.38
2017-03-13T13:55:12.244Z,13.39
2017-03-13T13:56:21.207Z,13.3
2017-03-13T13:57:30.181Z,13.29
2017-03-13T13:58:39.625Z,13.25
2017-03-13T13:59:48.593Z,13.23
2017-03-13T14:00:57.589Z,13.2
2017-03-13T14:02:06.550Z,13.22
2017-03-13T14:03:15.608Z,13.3
2017-03-13T14:04:24.865Z,13.28
2017-03-13T14:05:33.828Z,13.25
2017-03-13T14:06:42.876Z,13.2
2017-03-13T14:07:51.963Z,13.22
2017-03-13T14:09:00.931Z,13.15
2017-03-13T14:10:10.287Z,13.29
2017-03-13T14:11:19.249Z,13.2
2017-03-13T14:12:28.719Z,13.19
2017-03-13T14:13:38.090Z,13.22
2017-03-13T14:14:47.053Z,13.23
2017-03-13T14:15:56.330Z,13.07
2017-03-13T14:17:05.412Z,13.14
2017-03-13T14:18:14.378Z,13.12
2017-03-13T14:19:23.348Z,13.26
2017-03-13T14:20:32.343Z,13.2
2017-03-13T14:21:41.623Z,13.22
2017-03-13T14:22:50.597Z,13.1
2017-03-13T14:23:59.562Z,13.22
2017-03-13T14:25:08.528Z,13.2
2017-03-13T14:26:17.578Z,13.26
2017-03-13T14:27:26.928Z,13.15
2017-03-13T14:28:36.115Z,13.12
2017-03-13T14:29:45.094Z,13.22
2017-03-13T14:30:54.056Z,13.17
2017-03-13T14:32:03.025Z,13.2
2017-03-13T14:33:12.282Z,13.19
2017-03-13T14:34:21.245Z,13.14
2017-03-13T14:35:30.215Z,13.2
2017-03-13T14:36:39.174Z,13.22
2017-03-13T14:37:48.134Z,13.15
2017-03-13T14:38:57.395Z,13.15
2017-03-13T14:40:06.355Z,13.07
2017-03-13T14:41:15.399Z,13.19
2017-03-13T14:42:24.361Z,13.12
2017-03-13T14:43:33.318Z,13
2017-03-13T14:44:42.530Z,13.04
2017-03-13T14:45:51.490Z,13
2017-03-13T14:47:00.463Z,12.93
2017-03-13T14:48:09.827Z,12.86
2017-03-13T14:49:18.815Z,12.87
2017-03-13T14:50:28.081Z,12.87
2017-03-13T14:51:37.570Z,12.95
2017-03-13T14:52:48.672Z,12.9
2017-03-13T14:53:58.057Z,12.86
2017-03-13T14:55:07.106Z,12.9
2017-03-13T14:56:16.321Z,12.85
2017-03-13T14:57:25.372Z,12.87
2017-03-13T14:58:34.331Z,12.85
2017-03-13T14:59:43.385Z,12.86
2017-03-13T15:00:52.350Z,12.82
2017-03-13T15:02:01.609Z,12.71
2017-03-13T15:03:10.577Z,12.78
2017-03-13T15:04:19.545Z,12.71
2017-03-13T15:05:28.600Z,12.71
2017-03-13T15:06:37.578Z,12.74
2017-03-13T15:07:46.844Z,12.7
2017-03-13T15:08:55.828Z,12.85
2017-03-13T15:10:04.929Z,12.74
2017-03-13T15:11:13.890Z,12.67
2017-03-13T15:12:22.852Z,12.82
2017-03-13T15:13:32.117Z,12.75
2017-03-13T15:14:41.085Z,12.74
2017-03-13T15:15:50.050Z,12.72
2017-03-13T15:16:59.007Z,12.68
2017-03-13T15:18:08.061Z,12.67
2017-03-13T15:19:17.324Z,12.53